Portada
METAR-TAF:

METAR-TAF

Aeropuertos :

Longyearbyen, Noruega

Aeropuerto de Svalbard

latitud: 78-15N, longitud: 015-28E, altitud: 2 m

Observación

El informe se hizo hace 38 minutos, a las 11:50 UTC
Viento 14 kt del este-sureste
Temperatura -12°C
Humedad 61%
Presión 1006 hPa
Visibilidad 10 km o más
Escasas nubes a una altura de 2500 ft

METAR: ENSB 251150Z 12014KT 9999 FEW025 M12/M18 Q1006 NOSIG RMK WIND 1400FT 00000KT

Hora: 14:28 (12:28 UTC)

Pronóstico

Pronóstico válido del 25 a las 12 UTC al 26 a las 12 UTC
Viento 12 kt del este-sureste
Visibilidad 10 km o más
Escasas nubes a una altura de 2000 ft

TAF: ENSB 2512/2612 11012KT 9999 FEW020

Observaciones y pronósticos meteorológicos de más de 4000 aeropuertos (mensajes METAR y TAF).

Los puntos amarillos y rojos representan las estaciones disponibles.

Ponga el ratón en el punto deseado para ver el nombre de la estación.

Haga clic para ver las observaciones y los pronósticos meteorológicos.

Para cambiar el mapa : haga clic en los botones verdes con una cruz de color negro para hacer un zoom, en el botón verde con un guión para alejar o en las flechas verdes para mapas adyacentes.


METAR-TAF: